Time;durP1;ratioP1;P1;durP2;ratioP2;P2;SDS_P1;SDS_P2;PMS_P1;PMS_P2;Temp;Humidity;BMP_temperature;BMP_pressure;BME280_temperature;BME280_humidity;BME280_pressure;Samples;Min_cycle;Max_cycle;Signal;HPM_P1;HPM_P2
2022/08/12 00:42:56;;;;;;;15.30;6.40;;;;;;;14.34;63.87;99476.65;107983;1272;97082;-67
2022/08/12 00:45:25;;;;;;;12.50;6.60;;;;;;;14.33;63.84;99477.80;107904;1273;107121;-65
2022/08/12 00:47:53;;;;;;;15.90;6.70;;;;;;;14.32;63.86;99477.77;107956;1272;97179;-67
2022/08/12 00:50:21;;;;;;;16.80;7.20;;;;;;;14.29;63.85;99476.02;108002;1273;96956;-66
2022/08/12 00:52:51;;;;;;;15.90;6.90;;;;;;;14.28;64.03;99478.80;107966;1273;112783;-66
2022/08/12 00:55:20;;;;;;;15.20;7.00;;;;;;;14.25;63.93;99475.95;107937;1274;97108;-65
2022/08/12 00:57:49;;;;;;;14.00;6.70;;;;;;;14.23;63.90;99477.75;107982;1272;107841;-67
2022/08/12 01:00:21;;;;;;;15.20;7.00;;;;;;;14.20;63.97;99475.48;107998;1274;97031;-66
2022/08/12 01:02:52;;;;;;;17.60;7.50;;;;;;;14.18;64.04;99475.81;107990;1273;97555;-66
2022/08/12 01:13:48;;;;;;;14.60;6.30;;;;;;;14.06;64.12;99464.31;107952;1273;97468;-66
2022/08/12 01:16:21;;;;;;;12.30;6.10;;;;;;;14.03;64.10;99463.31;107977;1272;97326;-66
2022/08/12 01:18:53;;;;;;;13.20;6.40;;;;;;;14.01;64.11;99458.31;107942;1273;112877;-66
2022/08/12 01:21:48;;;;;;;15.10;7.60;;;;;;;13.97;64.20;99456.63;107848;1274;97370;-67
2022/08/12 01:24:35;;;;;;;15.40;7.00;;;;;;;13.94;64.29;99454.56;107932;1272;107830;-65
2022/08/12 01:27:03;;;;;;;15.40;7.90;;;;;;;13.90;64.26;99448.46;108001;1273;97103;-66
2022/08/12 01:29:42;;;;;;;15.90;7.10;;;;;;;13.90;64.25;99451.34;107991;1273;97024;-65
2022/08/12 01:32:13;;;;;;;16.30;8.50;;;;;;;13.88;64.40;99447.21;107974;1272;112878;-66
2022/08/12 01:34:52;;;;;;;17.60;8.60;;;;;;;13.87;64.25;99444.63;107964;1273;97245;-66
2022/08/12 01:37:24;;;;;;;17.00;8.10;;;;;;;13.85;64.40;99446.73;107952;1273;107757;-66
2022/08/12 01:39:55;;;;;;;16.90;8.50;;;;;;;13.83;64.48;99448.82;107952;1273;97092;-65
2022/08/12 01:42:50;;;;;;;18.50;8.30;;;;;;;13.82;64.46;99446.76;107993;1273;97076;-66
2022/08/12 01:45:23;;;;;;;16.60;8.40;;;;;;;13.82;64.40;99445.94;107958;1273;112800;-66
2022/08/12 01:48:08;;;;;;;18.20;7.80;;;;;;;13.80;64.46;99438.02;107963;1273;97026;-66
2022/08/12 01:50:45;;;;;;;14.80;7.80;;;;;;;13.77;64.51;99437.72;107900;1273;107582;-65
2022/08/12 01:53:17;;;;;;;16.10;8.20;;;;;;;13.77;64.53;99439.67;107939;1273;97292;-66
2022/08/12 01:55:46;;;;;;;15.80;8.40;;;;;;;13.76;64.49;99433.90;107942;1273;97676;-66
2022/08/12 02:01:26;;;;;;;16.20;7.30;;;;;;;13.73;64.56;99435.23;107906;1273;97063;-65
2022/08/12 02:13:46;;;;;;;14.70;7.20;;;;;;;13.63;64.70;99438.48;107899;1273;112950;-66
2022/08/12 02:16:35;;;;;;;15.10;7.70;;;;;;;13.56;64.52;99442.05;107931;1273;97750;-66
2022/08/12 02:19:30;;;;;;;14.30;7.60;;;;;;;13.47;64.60;99437.25;107898;1273;107948;-66
2022/08/12 02:22:07;;;;;;;14.00;7.20;;;;;;;13.37;64.61;99439.56;107877;1274;97763;-65
2022/08/12 02:24:37;;;;;;;16.80;7.00;;;;;;;13.35;64.79;99434.93;107884;1273;97024;-65
2022/08/12 02:27:07;;;;;;;13.70;7.10;;;;;;;13.34;64.74;99435.40;107929;1273;112906;-65
2022/08/12 02:29:36;;;;;;;13.80;6.80;;;;;;;13.33;64.84;99434.02;107918;1273;97108;-66
2022/08/12 02:32:04;;;;;;;11.90;6.80;;;;;;;13.32;64.72;99433.60;107916;1273;107893;-66
2022/08/12 02:34:33;;;;;;;14.20;7.40;;;;;;;13.30;64.75;99431.59;107901;1273;97283;-65
2022/08/12 02:37:02;;;;;;;18.30;7.90;;;;;;;13.28;64.77;99426.11;107950;1273;97478;-66
2022/08/12 02:39:32;;;;;;;16.50;7.80;;;;;;;13.28;64.95;99431.02;107804;1273;112701;-66
2022/08/12 02:42:03;;;;;;;16.70;8.10;;;;;;;13.28;64.93;99438.71;107891;1273;98231;-67
2022/08/12 02:44:39;;;;;;;15.90;7.60;;;;;;;13.25;64.90;99437.88;107887;1274;107736;-66
2022/08/12 02:47:08;;;;;;;20.50;7.50;;;;;;;13.24;64.91;99440.76;107759;1273;97041;-67
2022/08/12 02:50:00;;;;;;;14.80;7.30;;;;;;;13.23;65.12;99440.73;107796;1273;97061;-66
2022/08/12 02:52:31;;;;;;;16.40;7.10;;;;;;;13.21;65.01;99441.90;107919;1273;112511;-65
2022/08/12 02:55:08;;;;;;;16.20;7.90;;;;;;;13.24;65.13;99442.92;107928;1273;97306;-66
2022/08/12 02:57:36;;;;;;;14.80;7.40;;;;;;;13.23;65.26;99439.94;107834;1273;107574;-66
2022/08/12 03:00:06;;;;;;;15.90;7.40;;;;;;;13.25;65.23;99444.07;107878;1273;97354;-66
2022/08/12 03:02:37;;;;;;;16.00;7.30;;;;;;;13.26;65.37;99438.98;107930;1273;97053;-67
2022/08/12 03:05:05;;;;;;;14.20;7.60;;;;;;;13.29;65.31;99446.61;107903;1273;112840;-66
2022/08/12 03:07:40;;;;;;;16.20;7.70;;;;;;;13.31;65.36;99446.31;107923;1273;97360;-65
2022/08/12 03:10:28;;;;;;;16.60;7.40;;;;;;;13.32;65.50;99445.67;107910;1274;107857;-66
2022/08/12 03:13:07;;;;;;;16.40;7.70;;;;;;;13.31;65.35;99438.83;107988;1271;97068;-66
2022/08/12 03:15:35;;;;;;;19.00;8.30;;;;;;;13.35;65.57;99440.27;107981;1273;97074;-65
2022/08/12 03:18:20;;;;;;;17.10;7.60;;;;;;;13.36;65.51;99434.00;107925;1273;112862;-65
2022/08/12 03:20:57;;;;;;;17.90;8.10;;;;;;;13.38;65.64;99435.97;107973;1272;97220;-65
2022/08/12 03:23:27;;;;;;;21.00;9.20;;;;;;;13.40;65.64;99439.05;107953;1273;107844;-66
2022/08/12 03:26:00;;;;;;;20.70;8.00;;;;;;;13.40;65.61;99442.04;107954;1272;97024;-67
2022/08/12 03:28:49;;;;;;;24.10;8.50;;;;;;;13.44;65.67;99448.91;107929;1274;97080;-66
2022/08/12 03:31:21;;;;;;;26.70;8.30;;;;;;;13.45;65.71;99445.77;107947;1273;112926;-65
2022/08/12 03:33:50;;;;;;;23.00;8.40;;;;;;;13.48;65.70;99447.48;107912;1274;98237;-66
2022/08/12 03:36:33;;;;;;;22.10;8.50;;;;;;;13.50;65.96;99453.37;107938;1273;107899;-66
2022/08/12 03:39:21;;;;;;;24.80;10.20;;;;;;;13.52;65.91;99459.80;107921;1274;97111;-66
2022/08/12 03:42:20;;;;;;;21.60;9.70;;;;;;;13.51;66.03;99459.67;107852;1273;97128;-65
2022/08/12 04:01:57;;;;;;;27.20;9.30;;;;;;;13.65;66.17;99461.81;107843;1274;97342;-65
2022/08/12 04:04:32;;;;;;;22.70;9.10;;;;;;;13.64;66.16;99454.80;107951;1273;108793;-65
2022/08/12 04:07:07;;;;;;;20.70;8.10;;;;;;;13.67;66.31;99458.27;107929;1273;97483;-65
2022/08/12 04:09:41;;;;;;;20.30;8.00;;;;;;;13.67;66.28;99461.29;107961;1273;97060;-67
2022/08/12 04:15:00;;;;;;;17.40;8.30;;;;;;;13.70;66.34;99475.73;107970;1273;97372;-66
2022/08/12 04:17:29;;;;;;;33.60;7.50;;;;;;;13.70;66.33;99474.67;107887;1273;107839;-64
2022/08/12 04:19:58;;;;;;;34.30;8.00;;;;;;;13.70;66.22;99481.45;107928;1273;97042;-64
2022/08/12 04:22:29;;;;;;;24.60;7.60;;;;;;;13.67;66.10;99484.52;107967;1273;97820;-64
2022/08/12 04:25:01;;;;;;;22.40;11.10;;;;;;;13.64;66.21;99488.17;107894;1274;112721;-65
2022/08/12 04:27:30;;;;;;;21.20;7.90;;;;;;;13.65;66.34;99494.80;107965;1273;97479;-67
2022/08/12 04:30:00;;;;;;;30.10;7.70;;;;;;;13.65;66.31;99489.67;107849;1274;107984;-66
2022/08/12 04:32:49;;;;;;;15.60;6.90;;;;;;;13.65;66.37;99490.55;107916;1274;97217;-66
2022/08/12 04:35:19;;;;;;;17.90;7.30;;;;;;;13.64;66.41;99495.08;107948;1273;97184;-66
2022/08/12 04:37:53;;;;;;;20.50;7.70;;;;;;;13.68;66.54;99495.13;107932;1273;112798;-66
2022/08/12 04:40:30;;;;;;;15.70;7.20;;;;;;;13.68;66.42;99492.08;107936;1273;97745;-66
2022/08/12 04:43:02;;;;;;;14.10;6.10;;;;;;;13.74;66.52;99495.39;107959;1273;107861;-65
2022/08/12 04:45:31;;;;;;;14.80;6.10;;;;;;;13.77;66.53;99496.58;107941;1274;97074;-66
2022/08/12 04:48:00;;;;;;;39.40;8.00;;;;;;;13.80;66.64;99492.75;107990;1273;97428;-66
2022/08/12 04:50:30;;;;;;;36.40;8.40;;;;;;;13.83;66.60;99488.07;107953;1273;112838;-66
2022/08/12 04:53:05;;;;;;;21.70;7.80;;;;;;;13.88;66.46;99489.32;107855;1274;97091;-65
2022/08/12 04:55:33;;;;;;;21.30;7.90;;;;;;;13.90;66.56;99493.75;107943;1272;109364;-66
2022/08/12 04:58:01;;;;;;;19.70;8.70;;;;;;;13.92;66.63;99494.30;107954;1272;98091;-65
2022/08/12 05:00:29;;;;;;;21.30;8.50;;;;;;;13.95;66.62;99497.64;107994;1273;98352;-66
2022/08/12 05:02:57;;;;;;;20.00;8.70;;;;;;;13.98;66.65;99499.00;107968;1273;112840;-66
2022/08/12 05:05:25;;;;;;;42.50;9.10;;;;;;;14.02;66.71;99498.55;107805;1274;97440;-66
2022/08/12 05:07:53;;;;;;;19.50;9.50;;;;;;;14.06;66.77;99502.64;107946;1273;107897;-65
2022/08/12 05:10:22;;;;;;;37.60;10.60;;;;;;;14.11;66.81;99502.77;107942;1273;97062;-66
2022/08/12 05:13:10;;;;;;;59.40;10.00;;;;;;;14.17;66.90;99498.59;107925;1273;97059;-66
2022/08/12 05:15:39;;;;;;;25.30;10.60;;;;;;;14.21;66.92;99492.02;107882;1274;112846;-65
2022/08/12 05:18:27;;;;;;;27.20;12.20;;;;;;;14.25;67.02;99482.79;107959;1273;97099;-66
2022/08/12 05:20:59;;;;;;;31.60;13.60;;;;;;;14.31;66.86;99481.23;107951;1273;106661;-66
2022/08/12 05:23:30;;;;;;;28.80;14.00;;;;;;;14.37;66.86;99476.77;107894;1273;97146;-66
2022/08/12 05:25:59;;;;;;;32.40;13.00;;;;;;;14.43;66.85;99470.79;107944;1273;97185;-66
2022/08/12 05:28:29;;;;;;;29.00;14.50;;;;;;;14.46;66.91;99463.41;107962;1273;112876;-66
2022/08/12 05:30:57;;;;;;;30.80;14.80;;;;;;;14.54;66.92;99471.81;107960;1274;97403;-65
2022/08/12 05:33:34;;;;;;;35.00;13.70;;;;;;;14.61;67.04;99476.81;107866;1274;107682;-64
2022/08/12 05:36:06;;;;;;;46.90;14.60;;;;;;;14.66;67.12;99481.58;107938;1273;97043;-65
2022/08/12 05:41:34;;;;;;;45.40;12.30;;;;;;;14.68;66.81;99484.24;107884;1273;113214;-65
2022/08/12 05:44:07;;;;;;;28.50;13.10;;;;;;;14.62;66.84;99485.78;107982;1273;97063;-66
2022/08/12 05:46:36;;;;;;;32.70;12.50;;;;;;;14.60;66.86;99483.84;107920;1273;107831;-64
2022/08/12 05:49:05;;;;;;;25.30;11.20;;;;;;;14.55;66.86;99495.46;107951;1272;97453;-65
2022/08/12 05:51:35;;;;;;;21.60;11.00;;;;;;;14.55;67.10;99498.54;107875;1273;97036;-68
2022/08/12 05:54:10;;;;;;;21.80;11.60;;;;;;;14.57;67.31;99506.36;107963;1274;112926;-68
2022/08/12 05:56:40;;;;;;;22.50;11.80;;;;;;;14.67;67.44;99512.70;107854;1274;97140;-70
2022/08/12 05:59:11;;;;;;;29.70;13.90;;;;;;;14.74;67.39;99506.96;107944;1273;107729;-74
2022/08/12 06:01:40;;;;;;;26.80;14.00;;;;;;;14.77;67.13;99503.23;107931;1274;98335;-75
2022/08/12 06:04:29;;;;;;;26.80;14.70;;;;;;;14.71;67.23;99499.36;107990;1274;97156;-74
2022/08/12 06:06:57;;;;;;;32.30;15.90;;;;;;;14.74;67.46;99503.25;107967;1274;113027;-78
2022/08/12 06:09:29;;;;;;;31.80;16.70;;;;;;;14.85;67.48;99510.54;107958;1273;97146;-73
2022/08/12 06:11:56;;;;;;;32.10;17.40;;;;;;;14.94;67.53;99509.13;107913;1274;106987;-71
2022/08/12 06:14:35;;;;;;;29.50;16.10;;;;;;;15.02;67.66;99504.17;107948;1274;98056;-68
2022/08/12 06:17:07;;;;;;;;;;;;;;;15.14;67.70;99501.71;107932;1273;97046;-70
2022/08/12 06:19:36;;;;;;;26.30;13.90;;;;;;;15.21;67.87;99497.39;107961;1273;112496;-75
2022/08/12 06:22:25;;;;;;;27.40;15.50;;;;;;;15.32;67.80;99498.90;107918;1273;97243;-69
2022/08/12 06:24:53;;;;;;;28.10;14.00;;;;;;;15.41;67.68;99497.79;107883;1273;107843;-69
2022/08/12 06:27:21;;;;;;;28.20;15.60;;;;;;;15.47;67.83;99504.08;107969;1274;97069;-67
2022/08/12 06:29:49;;;;;;;27.80;14.70;;;;;;;15.57;67.63;99509.48;107954;1273;97084;-70
2022/08/12 06:32:37;;;;;;;25.80;14.70;;;;;;;15.64;67.74;99511.19;107865;1273;112878;-72
2022/08/12 06:35:26;;;;;;;24.90;14.20;;;;;;;15.70;67.77;99505.48;107935;1274;97081;-74
2022/08/12 06:38:24;;;;;;;26.60;14.50;;;;;;;15.82;67.74;99503.98;107945;1274;107808;-73
2022/08/12 06:43:45;;;;;;;25.10;13.60;;;;;;;15.97;67.61;99505.53;107879;1274;97056;-69
2022/08/12 06:46:35;;;;;;;23.90;13.90;;;;;;;16.02;67.62;99504.71;107910;1273;112827;-69
2022/08/12 06:49:05;;;;;;;26.10;13.80;;;;;;;16.09;67.72;99499.46;107894;1274;97330;-69
2022/08/12 06:51:33;;;;;;;24.00;14.10;;;;;;;16.19;67.75;99506.04;107884;1274;106520;-72
2022/08/12 06:54:01;;;;;;;23.70;13.90;;;;;;;16.28;67.73;99503.82;107950;1274;97045;-72
2022/08/12 06:56:30;;;;;;;28.00;13.60;;;;;;;16.37;67.71;99500.52;107947;1274;97424;-71
2022/08/12 06:59:20;;;;;;;27.20;14.30;;;;;;;16.46;67.73;99506.40;107824;1274;112912;-73
2022/08/12 07:01:48;;;;;;;23.80;14.00;;;;;;;16.54;67.86;99505.44;107931;1274;97393;-69
2022/08/12 07:04:19;;;;;;;25.00;14.00;;;;;;;16.62;67.67;99494.74;107916;1273;107994;-71
2022/08/12 07:07:07;;;;;;;25.10;13.80;;;;;;;16.70;67.74;99499.89;107804;1274;97781;-71
2022/08/12 07:09:36;;;;;;;24.50;13.70;;;;;;;16.74;67.80;99504.38;107971;1273;97090;-69
2022/08/12 07:12:26;;;;;;;25.10;12.70;;;;;;;16.81;67.60;99503.20;107962;1274;112691;-68
2022/08/12 07:15:00;;;;;;;24.50;13.30;;;;;;;16.92;67.67;99505.27;107994;1273;97153;-72
2022/08/12 07:17:34;;;;;;;23.50;13.50;;;;;;;17.00;67.68;99509.19;107877;1274;108166;-69
2022/08/12 07:20:08;;;;;;;22.50;12.80;;;;;;;17.11;67.55;99514.28;107949;1273;97111;-70
2022/08/12 07:22:38;;;;;;;24.10;13.70;;;;;;;17.25;67.63;99512.79;107836;1273;97058;-68
2022/08/12 07:27:54;;;;;;;21.30;11.50;;;;;;;17.60;67.56;99512.28;107989;1274;97414;-70
2022/08/12 07:30:22;;;;;;;23.60;11.60;;;;;;;17.72;67.67;99507.20;107888;1274;107853;-67
2022/08/12 07:32:50;;;;;;;20.70;12.50;;;;;;;17.82;67.41;99516.52;107787;1274;97794;-68
2022/08/12 07:35:19;;;;;;;22.70;12.20;;;;;;;17.89;67.57;99516.31;107937;1273;97159;-68
2022/08/12 07:37:49;;;;;;;22.90;13.40;;;;;;;17.99;67.34;99510.92;107908;1274;112720;-68
2022/08/12 07:40:18;;;;;;;22.80;12.90;;;;;;;18.17;67.27;99521.54;107941;1273;97234;-67
2022/08/12 07:42:46;;;;;;;23.30;14.10;;;;;;;18.27;67.51;99514.23;107932;1274;107891;-68
2022/08/12 07:45:15;;;;;;;23.20;13.60;;;;;;;18.37;67.38;99514.79;107915;1273;97056;-67
2022/08/12 07:47:43;;;;;;;21.50;12.80;;;;;;;18.43;67.24;99513.05;107958;1274;97062;-67
2022/08/12 07:50:13;;;;;;;23.20;13.50;;;;;;;18.52;67.23;99513.46;107866;1273;112745;-67
2022/08/12 07:52:46;;;;;;;22.20;13.30;;;;;;;18.56;67.22;99508.56;107830;1273;97056;-67
2022/08/12 07:55:15;;;;;;;25.90;15.00;;;;;;;18.62;67.13;99500.08;107713;1274;107801;-68
2022/08/12 07:57:52;;;;;;;23.70;14.60;;;;;;;18.82;67.07;99495.28;107933;1274;97359;-67
2022/08/12 08:00:19;;;;;;;23.70;14.70;;;;;;;18.98;66.85;99496.88;107912;1274;97305;-66
2022/08/12 08:02:48;;;;;;;24.10;12.50;;;;;;;19.96;65.85;99496.39;107899;1274;112741;-69
2022/08/12 08:05:16;;;;;;;22.30;12.70;;;;;;;21.38;65.03;99505.68;107924;1274;97106;-67
2022/08/12 08:07:44;;;;;;;21.40;11.50;;;;;;;22.20;65.43;99521.89;107965;1273;105940;-65
2022/08/12 08:10:12;;;;;;;23.20;13.00;;;;;;;22.05;66.41;99531.84;107855;1274;97080;-68
2022/08/12 08:12:52;;;;;;;22.60;13.80;;;;;;;22.02;66.69;99532.60;107951;1274;97101;-70
2022/08/12 08:15:22;;;;;;;26.30;15.60;;;;;;;21.89;66.40;99522.75;107710;1274;112867;-67
2022/08/12 08:18:12;;;;;;;27.40;16.60;;;;;;;21.73;66.40;99511.23;107896;1273;97170;-68
2022/08/12 08:20:55;;;;;;;27.40;16.00;;;;;;;21.60;66.34;99509.09;107987;1274;107774;-67
2022/08/12 08:24:13;;;;;;;25.30;15.50;;;;;;;21.49;66.22;99510.30;107909;1274;98307;-68
2022/08/12 08:26:25;;;;;;;22.80;14.80;;;;;;;21.37;66.17;99514.68;107927;1274;97236;-68
2022/08/12 08:28:53;;;;;;;26.70;15.40;;;;;;;21.31;66.06;99515.50;107971;1274;112048;-69
2022/08/12 08:31:22;;;;;;;25.50;16.90;;;;;;;21.24;65.95;99507.64;107892;1271;97319;-68
2022/08/12 08:33:50;;;;;;;24.30;15.50;;;;;;;21.17;65.92;99520.85;107984;1274;109362;-66
2022/08/12 08:36:38;;;;;;;27.50;16.40;;;;;;;21.02;65.75;99529.84;107953;1273;97345;-67
2022/08/12 08:39:20;;;;;;;25.40;16.30;;;;;;;20.93;65.78;99519.09;107960;1274;97310;-67
2022/08/12 08:44:47;;;;;;;25.80;15.30;;;;;;;20.91;65.32;99532.48;107863;1273;97120;-67
2022/08/12 08:47:25;;;;;;;24.80;15.60;;;;;;;20.93;65.57;99542.75;107843;1274;107907;-68
2022/08/12 08:49:56;;;;;;;25.40;15.20;;;;;;;20.91;65.33;99537.70;107589;1274;97436;-67
2022/08/12 08:52:24;;;;;;;25.20;16.00;;;;;;;20.88;65.44;99535.34;107883;1274;97442;-68
2022/08/12 08:55:12;;;;;;;27.80;15.60;;;;;;;20.93;65.32;99542.41;107854;1272;111935;-67
2022/08/12 08:57:44;;;;;;;24.80;15.60;;;;;;;20.91;65.35;99545.48;107864;1274;98189;-67
2022/08/12 09:00:14;;;;;;;26.30;15.80;;;;;;;20.93;65.22;99548.42;107911;1273;107896;-68
2022/08/12 09:02:43;;;;;;;25.10;15.70;;;;;;;20.94;65.46;99549.14;107893;1274;98289;-68
2022/08/12 09:05:27;;;;;;;25.40;15.60;;;;;;;20.89;65.14;99545.17;107864;1274;97340;-68
2022/08/12 09:08:14;;;;;;;24.20;15.30;;;;;;;20.87;65.03;99544.98;107864;1273;111195;-67
2022/08/12 09:10:57;;;;;;;24.90;15.90;;;;;;;20.86;65.23;99541.14;107857;1273;97195;-66
2022/08/12 09:13:26;;;;;;;26.00;15.90;;;;;;;20.86;65.05;99534.96;107777;1274;107548;-67
2022/08/12 09:16:16;;;;;;;26.00;15.70;;;;;;;20.84;65.00;99525.20;107944;1273;97279;-67
2022/08/12 09:19:04;;;;;;;26.80;17.00;;;;;;;20.82;64.83;99520.83;107926;1273;97109;-67
2022/08/12 09:21:32;;;;;;;26.20;15.90;;;;;;;20.94;64.78;99522.23;107926;1273;112912;-68
2022/08/12 09:24:20;;;;;;;29.30;15.70;;;;;;;21.15;64.74;99521.98;107922;1274;97048;-68
2022/08/12 09:26:48;;;;;;;25.00;16.00;;;;;;;21.20;64.96;99515.73;107931;1274;107043;-67
2022/08/12 09:29:20;;;;;;;26.40;17.80;;;;;;;21.31;64.88;99516.23;107898;1273;97110;-67
2022/08/12 09:32:08;;;;;;;26.70;16.60;;;;;;;21.51;64.92;99518.35;107901;1273;97434;-66
2022/08/12 09:34:56;;;;;;;36.90;16.80;;;;;;;21.58;64.59;99515.80;107900;1273;112837;-67
2022/08/12 09:37:25;;;;;;;26.50;17.80;;;;;;;21.60;64.62;99508.53;107894;1273;97136;-70
2022/08/12 09:39:53;;;;;;;27.10;16.60;;;;;;;21.76;64.66;99504.25;107890;1273;108471;-68
2022/08/12 09:45:47;;;;;;;25.60;17.40;;;;;;;21.86;64.72;99494.66;107885;1273;98507;-68
2022/08/12 09:48:35;;;;;;;26.20;17.30;;;;;;;21.87;64.68;99498.48;107950;1273;112898;-67
2022/08/12 09:51:22;;;;;;;25.30;17.70;;;;;;;21.89;64.47;99494.80;107913;1273;97239;-68
2022/08/12 09:53:50;;;;;;;28.20;17.60;;;;;;;21.90;64.30;99492.19;107871;1274;107926;-66
2022/08/12 09:56:39;;;;;;;26.10;17.80;;;;;;;21.88;64.37;99488.98;107921;1272;97094;-67
2022/08/12 09:59:27;;;;;;;26.00;16.80;;;;;;;21.82;64.38;99491.23;107933;1273;97061;-68
2022/08/12 10:02:15;;;;;;;28.30;18.80;;;;;;;21.74;64.26;99484.25;107951;1273;112928;-67
2022/08/12 10:05:04;;;;;;;27.90;18.10;;;;;;;21.72;64.09;99484.98;107978;1273;97469;-67
2022/08/12 10:07:35;;;;;;;26.00;17.90;;;;;;;21.70;64.34;99482.88;107951;1273;107891;-66
2022/08/12 10:10:09;;;;;;;27.00;17.80;;;;;;;21.68;64.03;99487.92;107962;1273;97052;-67
2022/08/12 10:16:02;;;;;;;26.10;17.40;;;;;;;21.72;64.08;99479.45;107975;1273;112881;-67
2022/08/12 10:18:35;;;;;;;26.10;17.50;;;;;;;21.88;64.07;99468.93;107893;1274;97144;-67
2022/08/12 10:21:19;;;;;;;25.30;16.80;;;;;;;22.05;64.39;99461.79;107940;1273;107849;-66
2022/08/12 10:23:51;;;;;;;25.70;17.10;;;;;;;22.20;63.94;99457.91;107967;1273;97083;-67
2022/08/12 10:32:20;;;;;;;31.30;16.10;;;;;;;22.57;64.03;99434.38;108013;1272;97109;-66
2022/08/12 10:35:08;;;;;;;25.80;16.50;;;;;;;22.83;64.10;99421.22;107932;1273;107863;-67
2022/08/12 10:37:37;;;;;;;24.60;15.20;;;;;;;23.05;63.96;99424.16;107958;1273;97537;-66
2022/08/12 10:40:24;;;;;;;25.20;16.80;;;;;;;23.21;63.94;99425.15;107897;1273;97426;-65
2022/08/12 10:45:47;;;;;;;23.70;15.50;;;;;;;23.34;63.51;99419.81;108009;1273;97129;-68
2022/08/12 10:48:19;;;;;;;26.70;17.30;;;;;;;23.34;63.65;99421.66;107968;1273;108062;-67
2022/08/12 10:51:04;;;;;;;25.10;16.40;;;;;;;23.27;63.11;99411.17;107927;1273;97316;-66
2022/08/12 10:53:54;;;;;;;27.30;16.10;;;;;;;23.25;63.31;99411.48;107981;1272;97109;-67
2022/08/12 10:56:31;;;;;;;26.60;15.00;;;;;;;23.24;63.23;99399.73;107980;1272;112917;-67
2022/08/12 10:59:03;;;;;;;26.80;15.00;;;;;;;23.20;63.22;99399.58;108012;1273;97220;-69
2022/08/12 11:01:32;;;;;;;24.50;16.10;;;;;;;23.20;63.24;99400.52;107987;1273;107918;-67
2022/08/12 11:04:20;;;;;;;27.90;14.50;;;;;;;23.19;62.92;99390.63;108013;1272;96928;-67
2022/08/12 11:07:08;;;;;;;23.00;15.00;;;;;;;23.29;63.03;99398.00;107996;1272;96907;-67
2022/08/12 11:09:57;;;;;;;22.70;14.00;;;;;;;23.36;63.02;99391.60;107936;1273;112880;-70
2022/08/12 11:12:30;;;;;;;23.60;14.20;;;;;;;23.44;63.12;99394.38;107915;1273;98379;-69
2022/08/12 11:15:22;;;;;;;23.00;13.40;;;;;;;23.44;62.81;99390.88;107921;1274;108241;-68
2022/08/12 11:18:11;;;;;;;20.70;12.10;;;;;;;23.41;62.78;99390.08;107978;1272;97048;-67
2022/08/12 11:20:46;;;;;;;20.20;12.30;;;;;;;23.40;62.59;99388.11;108006;1273;96994;-68
2022/08/12 11:23:16;;;;;;;21.00;12.40;;;;;;;23.46;62.71;99387.93;107959;1274;112890;-67
2022/08/12 11:26:06;;;;;;;20.90;12.10;;;;;;;23.57;62.75;99389.17;108005;1273;97341;-69
2022/08/12 11:28:35;;;;;;;22.60;11.30;;;;;;;23.58;62.54;99385.26;107975;1273;108008;-68
2022/08/12 11:31:07;;;;;;;19.70;11.30;;;;;;;23.59;62.33;99391.66;107899;1272;97040;-68
2022/08/12 11:33:42;;;;;;;18.40;10.10;;;;;;;23.65;62.18;99400.46;108036;1273;97035;-68
2022/08/12 11:36:30;;;;;;;17.80;10.20;;;;;;;23.72;62.26;99396.08;107976;1272;112946;-68
2022/08/12 11:38:58;;;;;;;18.80;10.10;;;;;;;23.82;62.18;99401.43;107957;1274;97370;-67
2022/08/12 11:41:32;;;;;;;22.50;10.10;;;;;;;23.84;62.05;99390.75;107977;1274;109262;-69
2022/08/12 11:44:02;;;;;;;16.20;9.40;;;;;;;23.91;62.00;99393.45;107967;1273;96973;-69
2022/08/12 11:46:53;;;;;;;15.60;7.80;;;;;;;24.06;61.96;99391.67;107836;1273;97071;-68
2022/08/12 11:49:22;;;;;;;14.20;8.00;;;;;;;24.17;62.03;99394.29;107944;1273;111354;-70
2022/08/12 11:52:00;;;;;;;16.90;8.20;;;;;;;24.27;61.76;99390.58;107946;1273;97484;-68
2022/08/12 11:54:29;;;;;;;14.20;8.10;;;;;;;24.33;61.76;99393.40;107891;1274;107866;-70
2022/08/12 11:56:59;;;;;;;14.80;7.70;;;;;;;24.40;61.80;99396.95;107903;1274;97451;-66
2022/08/12 11:59:31;;;;;;;13.90;7.60;;;;;;;24.45;61.51;99393.38;107955;1273;97028;-68
2022/08/12 12:02:19;;;;;;;13.30;7.50;;;;;;;24.44;61.49;99390.88;107933;1274;113972;-66
2022/08/12 12:04:49;;;;;;;13.60;7.20;;;;;;;24.45;61.51;99387.80;107962;1273;97238;-67
2022/08/12 12:07:21;;;;;;;14.90;6.60;;;;;;;24.42;61.20;99383.42;107966;1273;107644;-67
2022/08/12 12:10:11;;;;;;;13.30;6.60;;;;;;;24.31;61.09;99381.36;107966;1272;97274;-67
2022/08/12 12:12:41;;;;;;;13.90;6.80;;;;;;;24.24;61.06;99380.73;107965;1273;97399;-67
2022/08/12 12:15:17;;;;;;;14.30;6.70;;;;;;;24.18;61.10;99378.09;107986;1272;112862;-67
2022/08/12 12:17:52;;;;;;;12.30;6.80;;;;;;;24.14;60.94;99377.46;107983;1273;97362;-67
2022/08/12 12:20:22;;;;;;;16.30;7.30;;;;;;;24.15;60.90;99377.92;107939;1273;106520;-70
2022/08/12 12:22:57;;;;;;;13.40;7.60;;;;;;;24.14;60.73;99371.02;107938;1274;97095;-69
2022/08/12 12:25:24;;;;;;;12.70;7.00;;;;;;;24.10;60.87;99367.67;107944;1273;97074;-66
2022/08/12 12:28:13;;;;;;;12.20;7.10;;;;;;;24.07;60.72;99367.98;107936;1273;112425;-67
2022/08/12 12:31:02;;;;;;;12.00;6.40;;;;;;;24.01;60.51;99364.95;107973;1273;97357;-67
2022/08/12 12:33:31;;;;;;;11.60;6.80;;;;;;;23.94;60.46;99364.25;107824;1274;109098;-68
2022/08/12 12:36:19;;;;;;;14.00;6.10;;;;;;;23.87;60.51;99368.89;108015;1272;98211;-68
2022/08/12 12:38:55;;;;;;;13.00;6.90;;;;;;;23.77;60.47;99369.23;107954;1274;97033;-67
2022/08/12 12:41:23;;;;;;;12.50;6.60;;;;;;;23.70;60.41;99367.36;108016;1273;112903;-66
2022/08/12 12:44:11;;;;;;;11.00;6.10;;;;;;;23.66;60.45;99364.89;108016;1273;97110;-68
2022/08/12 12:46:56;;;;;;;9.70;6.00;;;;;;;23.59;60.06;99361.96;107956;1273;107873;-66
2022/08/12 12:49:24;;;;;;;12.50;6.70;;;;;;;23.50;60.32;99364.17;107992;1273;96965;-66
2022/08/12 12:51:53;;;;;;;10.60;6.40;;;;;;;23.44;60.23;99362.21;107986;1273;97058;-68
2022/08/12 12:54:51;;;;;;;10.20;5.90;;;;;;;23.35;60.12;99363.27;107999;1274;112488;-68
2022/08/12 12:57:19;;;;;;;10.80;5.70;;;;;;;23.29;60.01;99360.52;107977;1273;97354;-66
2022/08/12 13:00:14;;;;;;;9.00;5.70;;;;;;;23.22;59.99;99354.41;107992;1273;107881;-66
2022/08/12 13:02:49;;;;;;;12.50;6.00;;;;;;;23.17;60.08;99357.23;107983;1273;96973;-67
2022/08/12 13:05:27;;;;;;;12.50;6.00;;;;;;;23.17;59.85;99354.11;107971;1272;97053;-67
2022/08/12 13:07:59;;;;;;;9.90;5.30;;;;;;;23.19;59.92;99352.31;107774;1274;113050;-66
2022/08/12 13:10:31;;;;;;;11.60;5.30;;;;;;;23.21;59.83;99347.83;107955;1273;97325;-67
2022/08/12 13:13:06;;;;;;;8.70;5.30;;;;;;;23.24;59.83;99347.38;107868;1273;107816;-67
2022/08/12 13:15:55;;;;;;;10.00;5.30;;;;;;;23.28;59.85;99345.81;107910;1273;97660;-67
2022/08/12 13:18:38;;;;;;;10.60;5.50;;;;;;;23.34;59.81;99346.92;107924;1273;97889;-64
2022/08/12 13:21:09;;;;;;;7.10;5.10;;;;;;;23.38;59.93;99345.70;107869;1274;112927;-66
2022/08/12 13:23:57;;;;;;;8.50;5.50;;;;;;;23.44;59.69;99342.59;107987;1273;97249;-66
2022/08/12 13:26:33;;;;;;;10.90;5.40;;;;;;;23.50;59.70;99336.07;107906;1273;107837;-66
2022/08/12 13:29:03;;;;;;;9.20;5.30;;;;;;;23.55;59.70;99335.44;107939;1273;97137;-66
2022/08/12 13:31:31;;;;;;;8.10;5.40;;;;;;;23.61;59.65;99328.83;107940;1273;97009;-65
2022/08/12 13:34:04;;;;;;;8.20;5.20;;;;;;;23.65;59.76;99323.02;107970;1273;112769;-66
2022/08/12 13:36:51;;;;;;;8.00;4.80;;;;;;;23.68;59.54;99325.89;107965;1273;97101;-66